首页
METAR-TAF:

METAR-TAF

机场 :

Logan County Airport

林肯, 伊利诺伊州, 美国

纬度: 40-09-31N, 经度: 089-20-06W, 海拔: 182米

当前天气观测

该预报发布于27分钟前的21:15 UTC
风速7节,风向
温度 29°C
湿度 79%
气压 1013 hPa
能見度: 16.1公里
散云层高于2600英尺
多云层高于3100英尺
多云层高于4300英尺

METAR: KAAA 212115Z AUTO 01007KT 10SM SCT026 BKN031 BKN043 29/25 A2992 RMK AO2 T02940248

时间: 16:42 (21:42 UTC)


TAF: 丢失

超过4000个机场的气象观测和天气预报(METAR&TAF报告)。

可查询的气象台以黄色和红色小点在地图上表示。

将鼠标移到小点上方,可查看气象台名称。

然后点击查看天气观测和预报。

如需切换地图:点击带黑十字的绿色按钮放大地图;点击带横线的绿色按钮缩小地图;或者点击绿色箭头查看邻近地区的地图。


METAR-TAF: